createdAt,value
2018-09-14T00:00:33.310Z,997.8
2018-09-14T00:01:34.698Z,997.8
2018-09-14T00:02:37.637Z,997.8
2018-09-14T00:03:38.964Z,997.9
2018-09-14T00:04:40.348Z,997.8
2018-09-14T00:05:41.724Z,997.8
2018-09-14T00:06:43.131Z,997.8
2018-09-14T00:07:45.478Z,997.8
2018-09-14T00:08:46.857Z,997.8
2018-09-14T00:09:48.352Z,997.7
2018-09-14T00:10:49.746Z,997.7
2018-09-14T00:11:51.124Z,997.7
2018-09-14T00:12:52.698Z,997.7
2018-09-14T00:13:54.075Z,997.7
2018-09-14T00:14:55.456Z,997.7
2018-09-14T00:15:56.834Z,997.7
2018-09-14T00:16:58.212Z,997.7
2018-09-14T00:17:59.593Z,997.7
2018-09-14T00:19:00.971Z,997.7
2018-09-14T00:20:02.353Z,997.6
2018-09-14T00:21:03.747Z,997.7
2018-09-14T00:22:05.118Z,997.6
2018-09-14T00:23:06.495Z,997.7
2018-09-14T00:24:07.875Z,997.6
2018-09-14T00:25:09.287Z,997.7
2018-09-14T00:26:10.665Z,997.6
2018-09-14T00:27:12.052Z,997.6
2018-09-14T00:28:13.423Z,997.6
2018-09-14T00:29:14.809Z,997.6
2018-09-14T00:30:16.182Z,997.6
2018-09-14T00:31:17.560Z,997.6
2018-09-14T00:32:18.950Z,997.7
2018-09-14T00:33:20.348Z,997.7
2018-09-14T00:34:21.727Z,997.6
2018-09-14T00:35:23.105Z,997.7
2018-09-14T00:36:24.479Z,997.6
2018-09-14T00:37:25.865Z,997.6
2018-09-14T00:38:28.081Z,997.6
2018-09-14T00:39:29.451Z,997.6
2018-09-14T00:40:30.829Z,997.6
2018-09-14T00:41:32.207Z,997.6
2018-09-14T00:42:34.173Z,997.6
2018-09-14T00:43:35.582Z,997.5
2018-09-14T00:44:36.928Z,997.6
2018-09-14T00:45:38.318Z,997.5
2018-09-14T00:46:39.689Z,997.5
2018-09-14T00:47:41.640Z,997.6
2018-09-14T00:48:43.018Z,997.6
2018-09-14T00:49:44.394Z,997.6
2018-09-14T00:50:45.778Z,997.6
2018-09-14T00:51:47.157Z,997.6
2018-09-14T00:52:48.544Z,997.6
2018-09-14T00:53:49.918Z,997.7
2018-09-14T00:54:51.293Z,997.6
2018-09-14T00:55:52.672Z,997.6
2018-09-14T00:56:54.090Z,997.7
2018-09-14T00:57:55.455Z,997.7
2018-09-14T00:58:56.835Z,997.7
2018-09-14T00:59:59.124Z,997.6
2018-09-14T01:01:00.494Z,997.7
2018-09-14T01:02:01.887Z,997.6
2018-09-14T01:03:03.273Z,997.7
2018-09-14T01:04:04.645Z,997.6
2018-09-14T01:05:06.023Z,997.6
2018-09-14T01:06:07.401Z,997.7
2018-09-14T01:07:08.779Z,997.6
2018-09-14T01:08:10.162Z,997.6
2018-09-14T01:09:11.532Z,997.6
2018-09-14T01:10:12.917Z,997.6
2018-09-14T01:11:14.303Z,997.6
2018-09-14T01:12:15.716Z,997.6
2018-09-14T01:13:17.050Z,997.6
2018-09-14T01:14:18.432Z,997.5
2018-09-14T01:15:19.808Z,997.6
2018-09-14T01:16:21.190Z,997.6
2018-09-14T01:17:22.754Z,997.6
2018-09-14T01:18:23.902Z,997.6
2018-09-14T01:19:25.278Z,997.6
2018-09-14T01:20:26.658Z,997.6
2018-09-14T01:21:28.036Z,997.6
2018-09-14T01:22:29.417Z,997.7
2018-09-14T01:23:30.795Z,997.6
2018-09-14T01:24:32.177Z,997.6
2018-09-14T01:25:33.550Z,997.6
2018-09-14T01:26:34.930Z,997.6
2018-09-14T01:27:36.312Z,997.6
2018-09-14T01:28:37.688Z,997.6
2018-09-14T01:29:39.071Z,997.6
2018-09-14T01:30:40.456Z,997.7
2018-09-14T01:31:41.828Z,997.6
2018-09-14T01:32:43.226Z,997.6
2018-09-14T01:33:44.604Z,997.7
2018-09-14T01:34:45.988Z,997.6
2018-09-14T01:35:47.367Z,997.6
2018-09-14T01:36:48.751Z,997.7
2018-09-14T01:37:50.131Z,997.6
2018-09-14T01:38:51.509Z,997.6
2018-09-14T01:39:52.892Z,997.6
2018-09-14T01:40:54.277Z,997.6
2018-09-14T01:41:55.680Z,997.6
2018-09-14T01:42:57.053Z,997.6
2018-09-14T01:43:58.435Z,997.6
2018-09-14T01:44:59.817Z,997.6
2018-09-14T01:46:01.206Z,997.6
2018-09-14T01:47:02.588Z,997.6
2018-09-14T01:48:03.959Z,997.6
2018-09-14T01:49:05.346Z,997.6
2018-09-14T01:50:06.719Z,997.6
2018-09-14T01:51:09.034Z,997.6
2018-09-14T01:52:10.415Z,997.5
2018-09-14T01:53:11.789Z,997.5
2018-09-14T01:54:13.162Z,997.5
2018-09-14T01:55:14.544Z,997.5
2018-09-14T01:56:15.926Z,997.5
2018-09-14T01:57:17.348Z,997.4
2018-09-14T01:58:18.752Z,997.5
2018-09-14T01:59:20.127Z,997.5
2018-09-14T02:00:21.508Z,997.4
2018-09-14T02:01:22.890Z,997.4
2018-09-14T02:02:24.261Z,997.4
2018-09-14T02:03:25.659Z,997.4
2018-09-14T02:04:27.040Z,997.4
2018-09-14T02:05:28.427Z,997.4
2018-09-14T02:06:29.806Z,997.4
2018-09-14T02:07:31.219Z,997.4
2018-09-14T02:08:32.583Z,997.4
2018-09-14T02:09:33.958Z,997.4
2018-09-14T02:10:35.339Z,997.4
2018-09-14T02:11:36.719Z,997.4
2018-09-14T02:12:38.094Z,997.4
2018-09-14T02:13:39.474Z,997.4
2018-09-14T02:14:40.855Z,997.4
2018-09-14T02:15:42.236Z,997.4
2018-09-14T02:16:43.610Z,997.4
2018-09-14T02:17:44.985Z,997.4
2018-09-14T02:18:46.387Z,997.4
2018-09-14T02:19:47.763Z,997.4
2018-09-14T02:20:49.151Z,997.4
2018-09-14T02:21:50.556Z,997.4
2018-09-14T02:22:51.926Z,997.3
2018-09-14T02:23:53.303Z,997.3
2018-09-14T02:24:54.686Z,997.4
2018-09-14T02:25:56.073Z,997.3
2018-09-14T02:26:57.451Z,997.3
2018-09-14T02:27:58.836Z,997.3
2018-09-14T02:29:00.211Z,997.3
2018-09-14T02:30:01.598Z,997.3
2018-09-14T02:31:02.979Z,997.3
2018-09-14T02:32:04.359Z,997.3
2018-09-14T02:33:05.737Z,997.3
2018-09-14T02:34:07.121Z,997.2
2018-09-14T02:35:08.576Z,997.2
2018-09-14T02:36:10.071Z,997.2
2018-09-14T02:37:11.462Z,997.2
2018-09-14T02:38:12.842Z,997.2
2018-09-14T02:39:14.252Z,997.2
2018-09-14T02:40:15.641Z,997.3
2018-09-14T02:41:17.019Z,997.3
2018-09-14T02:42:18.402Z,997.3
2018-09-14T02:43:19.802Z,997.3
2018-09-14T02:44:21.201Z,997.3
2018-09-14T02:45:22.573Z,997.3
2018-09-14T02:46:24.069Z,997.3
2018-09-14T02:47:25.451Z,997.3
2018-09-14T02:48:26.827Z,997.3
2018-09-14T02:49:28.212Z,997.3
2018-09-14T02:50:29.586Z,997.3
2018-09-14T02:51:30.971Z,997.3
2018-09-14T02:52:32.384Z,997.3
2018-09-14T02:53:33.872Z,997.3
2018-09-14T02:54:35.479Z,997.4
2018-09-14T02:55:36.861Z,997.3
2018-09-14T02:56:38.236Z,997.3
2018-09-14T02:57:39.698Z,997.3
2018-09-14T02:58:41.081Z,997.3
2018-09-14T02:59:44.033Z,997.3
2018-09-14T03:00:45.423Z,997.3
2018-09-14T03:01:46.795Z,997.3
2018-09-14T03:02:49.213Z,997.3
2018-09-14T03:03:50.592Z,997.3
2018-09-14T03:04:51.990Z,997.4
2018-09-14T03:05:53.367Z,997.3
2018-09-14T03:06:54.744Z,997.3
2018-09-14T03:07:56.171Z,997.3
2018-09-14T03:08:57.575Z,997.3
2018-09-14T03:09:58.942Z,997.3
2018-09-14T03:11:00.320Z,997.3
2018-09-14T03:12:01.722Z,997.3
2018-09-14T03:13:03.099Z,997.3
2018-09-14T03:14:04.477Z,997.3
2018-09-14T03:15:06.045Z,997.3
2018-09-14T03:16:07.419Z,997.3
2018-09-14T03:17:08.798Z,997.3
2018-09-14T03:18:10.182Z,997.3
2018-09-14T03:19:11.553Z,997.3
2018-09-14T03:20:12.941Z,997.3
2018-09-14T03:21:14.329Z,997.3
2018-09-14T03:22:15.741Z,997.3
2018-09-14T03:23:17.080Z,997.3
2018-09-14T03:24:18.475Z,997.3
2018-09-14T03:25:19.858Z,997.3
2018-09-14T03:26:21.241Z,997.3
2018-09-14T03:27:22.617Z,997.3
2018-09-14T03:28:23.979Z,997.3
2018-09-14T03:29:25.416Z,997.2
2018-09-14T03:30:26.758Z,997.2
2018-09-14T03:31:28.145Z,997.3
2018-09-14T03:32:29.551Z,997.2
2018-09-14T03:33:30.911Z,997.2
2018-09-14T03:34:32.293Z,997.2
2018-09-14T03:35:33.673Z,997.3
2018-09-14T03:36:35.052Z,997.3
2018-09-14T03:37:36.425Z,997.3
2018-09-14T03:38:37.806Z,997.2
2018-09-14T03:39:39.186Z,997.2
2018-09-14T03:40:40.567Z,997.2
2018-09-14T03:41:41.948Z,997.2
2018-09-14T03:42:43.324Z,997.2
2018-09-14T03:43:44.697Z,997.2
2018-09-14T03:44:46.082Z,997.2
2018-09-14T03:45:47.451Z,997.2
2018-09-14T03:46:48.833Z,997.3
2018-09-14T03:47:50.232Z,997.2
2018-09-14T03:48:51.604Z,997.2
2018-09-14T03:49:53.043Z,997.3
2018-09-14T03:50:54.420Z,997.3
2018-09-14T03:51:56.506Z,997.3
2018-09-14T03:52:57.882Z,997.3
2018-09-14T03:53:59.252Z,997.3
2018-09-14T03:55:00.635Z,997.3
2018-09-14T03:56:02.016Z,997.2
2018-09-14T03:57:03.396Z,997.3
2018-09-14T03:58:04.770Z,997.3
2018-09-14T03:59:06.154Z,997.3
2018-09-14T04:00:07.540Z,997.3
2018-09-14T04:01:08.923Z,997.3
2018-09-14T04:02:10.310Z,997.3
2018-09-14T04:03:11.692Z,997.3
2018-09-14T04:04:13.069Z,997.2
2018-09-14T04:05:14.450Z,997.2
2018-09-14T04:06:15.823Z,997.2
2018-09-14T04:07:17.206Z,997.2
2018-09-14T04:08:18.583Z,997.2
2018-09-14T04:09:19.981Z,997.2
2018-09-14T04:10:21.348Z,997.2
2018-09-14T04:11:22.734Z,997.2
2018-09-14T04:12:24.109Z,997.2
2018-09-14T04:13:25.480Z,997.2
2018-09-14T04:14:26.858Z,997.2
2018-09-14T04:15:28.239Z,997.2
2018-09-14T04:16:30.236Z,997.2
2018-09-14T04:17:31.612Z,997.2
2018-09-14T04:18:32.994Z,997.2
2018-09-14T04:19:34.370Z,997.2
2018-09-14T04:20:35.748Z,997.2
2018-09-14T04:21:37.129Z,997.2
2018-09-14T04:22:38.509Z,997.2
2018-09-14T04:23:39.961Z,997.2
2018-09-14T04:24:41.270Z,997.2
2018-09-14T04:25:42.647Z,997.3
2018-09-14T04:26:44.026Z,997.3
2018-09-14T04:27:45.400Z,997.3
2018-09-14T04:28:46.776Z,997.2
2018-09-14T04:29:48.158Z,997.2
2018-09-14T04:30:49.533Z,997.3
2018-09-14T04:31:50.919Z,997.3
2018-09-14T04:32:52.292Z,997.3
2018-09-14T04:33:53.666Z,997.4
2018-09-14T04:34:55.049Z,997.4
2018-09-14T04:35:56.425Z,997.4
2018-09-14T04:36:57.808Z,997.3
2018-09-14T04:37:59.199Z,997.3
2018-09-14T04:39:00.562Z,997.3
2018-09-14T04:40:01.943Z,997.3
2018-09-14T04:41:03.325Z,997.3
2018-09-14T04:42:04.693Z,997.4
2018-09-14T04:43:06.081Z,997.4
2018-09-14T04:44:07.455Z,997.4
2018-09-14T04:45:08.837Z,997.4
2018-09-14T04:46:10.215Z,997.4
2018-09-14T04:47:11.607Z,997.4
2018-09-14T04:48:13.023Z,997.5
2018-09-14T04:49:14.351Z,997.5
2018-09-14T04:50:15.730Z,997.5
2018-09-14T04:51:17.171Z,997.5
2018-09-14T04:52:18.503Z,997.5
2018-09-14T04:53:19.882Z,997.6
2018-09-14T04:54:21.326Z,997.6
2018-09-14T04:55:22.712Z,997.6
2018-09-14T04:56:24.085Z,997.6
2018-09-14T04:57:25.532Z,997.6
2018-09-14T04:58:26.808Z,997.6
2018-09-14T04:59:28.216Z,997.6
2018-09-14T05:00:29.578Z,997.6
2018-09-14T05:01:30.960Z,997.6
2018-09-14T05:02:32.329Z,997.6
2018-09-14T05:03:33.701Z,997.6
2018-09-14T05:04:35.077Z,997.6
2018-09-14T05:05:37.379Z,997.6
2018-09-14T05:06:38.764Z,997.6
2018-09-14T05:07:40.198Z,997.6
2018-09-14T05:08:41.531Z,997.6
2018-09-14T05:09:42.909Z,997.6
2018-09-14T05:10:44.281Z,997.6
2018-09-14T05:11:45.670Z,997.6
2018-09-14T05:12:47.041Z,997.6
2018-09-14T05:13:48.444Z,997.6
2018-09-14T05:14:49.820Z,997.6
2018-09-14T05:15:51.213Z,997.6
2018-09-14T05:16:52.583Z,997.6
2018-09-14T05:17:53.971Z,997.6
2018-09-14T05:18:55.368Z,997.6
2018-09-14T05:19:56.741Z,997.6
2018-09-14T05:20:58.128Z,997.6
2018-09-14T05:21:59.507Z,997.6
2018-09-14T05:23:00.891Z,997.6
2018-09-14T05:24:02.314Z,997.6
2018-09-14T05:25:03.729Z,997.6
2018-09-14T05:26:05.036Z,997.6
2018-09-14T05:27:06.411Z,997.6
2018-09-14T05:28:07.827Z,997.6
2018-09-14T05:29:09.201Z,997.6
2018-09-14T05:30:10.576Z,997.6
2018-09-14T05:31:11.957Z,997.7
2018-09-14T05:32:13.332Z,997.6
2018-09-14T05:33:14.732Z,997.6
2018-09-14T05:34:16.122Z,997.6
2018-09-14T05:35:17.499Z,997.6
2018-09-14T05:36:18.891Z,997.6
2018-09-14T05:37:20.266Z,997.7
2018-09-14T05:38:21.701Z,997.7
2018-09-14T05:39:23.031Z,997.7
2018-09-14T05:40:24.411Z,997.7
2018-09-14T05:41:25.824Z,997.7
2018-09-14T05:42:27.215Z,997.7
2018-09-14T05:43:28.599Z,997.8
2018-09-14T05:44:29.970Z,997.8
2018-09-14T05:45:31.373Z,997.8
2018-09-14T05:46:32.734Z,997.8
2018-09-14T05:47:34.112Z,997.8
2018-09-14T05:48:35.499Z,997.8
2018-09-14T05:49:36.901Z,997.8
2018-09-14T05:50:38.267Z,997.8
2018-09-14T05:51:39.651Z,997.8
2018-09-14T05:52:41.018Z,997.8
2018-09-14T05:53:42.395Z,997.9
2018-09-14T05:54:44.538Z,997.8
2018-09-14T05:55:45.913Z,997.8
2018-09-14T05:56:47.290Z,997.9
2018-09-14T05:57:48.675Z,997.9
2018-09-14T05:58:50.070Z,997.8
2018-09-14T05:59:51.435Z,997.9
2018-09-14T06:00:52.812Z,997.9
2018-09-14T06:01:54.202Z,997.9
2018-09-14T06:02:55.576Z,997.8
2018-09-14T06:03:56.959Z,997.9
2018-09-14T06:04:58.341Z,997.9
2018-09-14T06:05:59.721Z,997.9
2018-09-14T06:07:01.107Z,997.9
2018-09-14T06:08:02.484Z,997.9
2018-09-14T06:09:03.876Z,997.9
2018-09-14T06:10:05.328Z,997.9
2018-09-14T06:11:06.699Z,997.8
2018-09-14T06:12:08.086Z,997.9
2018-09-14T06:13:09.471Z,997.9
2018-09-14T06:14:10.953Z,997.8
2018-09-14T06:15:12.349Z,997.9
2018-09-14T06:16:13.732Z,997.9
2018-09-14T06:17:15.105Z,997.8
2018-09-14T06:18:16.484Z,997.9
2018-09-14T06:19:17.874Z,997.9
2018-09-14T06:20:19.251Z,997.9
2018-09-14T06:21:20.629Z,997.9
2018-09-14T06:22:22.016Z,998.0
2018-09-14T06:23:23.393Z,998.0
2018-09-14T06:24:24.799Z,997.9
2018-09-14T06:25:26.217Z,997.9
2018-09-14T06:26:27.579Z,998.0
2018-09-14T06:27:28.960Z,998.0
2018-09-14T06:28:30.332Z,998.0
2018-09-14T06:29:31.712Z,998.1
2018-09-14T06:30:33.107Z,998.1
2018-09-14T06:31:34.469Z,998.1
2018-09-14T06:32:35.856Z,998.1
2018-09-14T06:33:37.248Z,998.1
2018-09-14T06:34:38.631Z,998.1
2018-09-14T06:35:40.020Z,998.1
2018-09-14T06:36:41.467Z,998.1
2018-09-14T06:37:42.869Z,998.1
2018-09-14T06:38:44.234Z,998.1
2018-09-14T06:39:45.636Z,998.1
2018-09-14T06:40:47.001Z,998.2
2018-09-14T06:41:51.891Z,998.2
2018-09-14T06:42:53.271Z,998.2
2018-09-14T06:43:54.643Z,998.2
2018-09-14T06:44:56.085Z,998.2
2018-09-14T06:45:57.424Z,998.2
2018-09-14T06:46:58.850Z,998.1
2018-09-14T06:48:00.207Z,998.2
2018-09-14T06:49:01.606Z,998.2
2018-09-14T06:50:02.993Z,998.2
2018-09-14T06:51:04.513Z,998.2
2018-09-14T06:52:05.901Z,998.2
2018-09-14T06:53:07.285Z,998.2
2018-09-14T06:54:08.661Z,998.2
2018-09-14T06:55:10.056Z,998.2
2018-09-14T06:56:11.457Z,998.2
2018-09-14T06:57:12.828Z,998.2
2018-09-14T06:58:14.234Z,998.2
2018-09-14T06:59:15.607Z,998.2
2018-09-14T07:00:17.109Z,998.2
2018-09-14T07:01:18.430Z,998.2
2018-09-14T07:02:19.817Z,998.2
2018-09-14T07:03:21.226Z,998.2
2018-09-14T07:04:22.598Z,998.2
2018-09-14T07:05:24.715Z,998.2
2018-09-14T07:06:26.173Z,998.2
2018-09-14T07:07:27.501Z,998.3
2018-09-14T07:08:28.885Z,998.3
2018-09-14T07:09:30.270Z,998.3
2018-09-14T07:10:31.647Z,998.3
2018-09-14T07:11:33.032Z,998.3
2018-09-14T07:12:34.442Z,998.3
2018-09-14T07:13:35.833Z,998.3
2018-09-14T07:14:37.237Z,998.3
2018-09-14T07:15:38.627Z,998.3
2018-09-14T07:16:40.000Z,998.3
2018-09-14T07:17:41.398Z,998.3
2018-09-14T07:18:42.794Z,998.3
2018-09-14T07:19:44.182Z,998.3
2018-09-14T07:20:45.550Z,998.3
2018-09-14T07:21:46.960Z,998.4
2018-09-14T07:22:48.392Z,998.3
2018-09-14T07:23:49.763Z,998.3
2018-09-14T07:24:51.370Z,998.3
2018-09-14T07:25:52.550Z,998.3
2018-09-14T07:26:54.018Z,998.3
2018-09-14T07:27:55.397Z,998.3
2018-09-14T07:28:56.791Z,998.3
2018-09-14T07:29:58.180Z,998.3
2018-09-14T07:30:59.526Z,998.3
2018-09-14T07:32:00.935Z,998.4
2018-09-14T07:33:02.332Z,998.3
2018-09-14T07:34:03.721Z,998.3
2018-09-14T07:35:05.136Z,998.3
2018-09-14T07:36:06.520Z,998.4
2018-09-14T07:37:07.917Z,998.4
2018-09-14T07:38:13.306Z,998.4
2018-09-14T07:39:19.223Z,998.4
2018-09-14T07:40:23.015Z,998.4
2018-09-14T07:41:27.193Z,998.4
2018-09-14T07:42:30.059Z,998.4
2018-09-14T07:43:33.528Z,998.4
2018-09-14T07:44:36.862Z,998.4
2018-09-14T07:45:39.714Z,998.4
2018-09-14T07:46:43.512Z,998.4
2018-09-14T07:47:46.417Z,998.4
2018-09-14T07:48:48.998Z,998.4
2018-09-14T07:49:52.413Z,998.4
2018-09-14T07:50:54.932Z,998.4
2018-09-14T07:51:59.410Z,998.4
2018-09-14T07:53:01.404Z,998.4
2018-09-14T07:54:05.253Z,998.4
2018-09-14T07:55:08.121Z,998.3
2018-09-14T07:56:10.718Z,998.4
2018-09-14T07:57:13.471Z,998.3
2018-09-14T07:58:17.002Z,998.4
2018-09-14T07:59:20.318Z,998.3
2018-09-14T08:00:23.177Z,998.3
2018-09-14T08:01:25.158Z,998.3
2018-09-14T08:02:28.410Z,998.3
2018-09-14T08:03:30.873Z,998.4
2018-09-14T08:04:34.132Z,998.4
2018-09-14T08:05:37.031Z,998.4
2018-09-14T08:06:40.247Z,998.4
2018-09-14T08:07:44.012Z,998.4
2018-09-14T08:08:47.432Z,998.4
2018-09-14T08:09:48.418Z,998.4
2018-09-14T08:10:52.318Z,998.4
2018-09-14T08:11:54.259Z,998.4
2018-09-14T08:12:56.906Z,998.4
2018-09-14T08:14:00.554Z,998.4
2018-09-14T08:15:03.514Z,998.5
2018-09-14T08:16:06.104Z,998.5
2018-09-14T08:17:08.876Z,998.5
2018-09-14T08:18:11.816Z,998.5
2018-09-14T08:19:14.416Z,998.5
2018-09-14T08:20:18.030Z,998.5
2018-09-14T08:21:20.449Z,998.6
2018-09-14T08:22:23.656Z,998.5
2018-09-14T08:23:26.186Z,998.6
2018-09-14T08:24:29.485Z,998.5
2018-09-14T08:25:32.462Z,998.6
2018-09-14T08:26:35.101Z,998.5
2018-09-14T08:27:37.672Z,998.5
2018-09-14T08:28:41.101Z,998.6
2018-09-14T08:29:43.469Z,998.5
2018-09-14T08:30:46.641Z,998.6
2018-09-14T08:31:49.589Z,998.6
2018-09-14T08:32:52.027Z,998.6
2018-09-14T08:33:55.309Z,998.6
2018-09-14T08:34:58.277Z,998.6
2018-09-14T08:36:01.112Z,998.6
2018-09-14T08:37:04.391Z,998.6
2018-09-14T08:38:06.348Z,998.6
2018-09-14T08:39:09.319Z,998.6
2018-09-14T08:40:12.914Z,998.7
2018-09-14T08:41:16.405Z,998.7
2018-09-14T08:42:18.440Z,998.6
2018-09-14T08:43:21.147Z,998.7
2018-09-14T08:44:24.370Z,998.7
2018-09-14T08:45:26.876Z,998.7
2018-09-14T08:46:30.167Z,998.7
2018-09-14T08:47:33.461Z,998.7
2018-09-14T08:48:35.971Z,998.7
2018-09-14T08:49:38.641Z,998.7
2018-09-14T08:50:42.090Z,998.8
2018-09-14T08:51:44.697Z,998.7
2018-09-14T08:52:47.641Z,998.7
2018-09-14T08:53:50.504Z,998.8
2018-09-14T08:54:52.914Z,998.8
2018-09-14T08:55:56.701Z,998.8
2018-09-14T08:56:59.193Z,998.8
2018-09-14T08:58:02.534Z,998.8
2018-09-14T08:59:04.868Z,998.8
2018-09-14T09:00:07.348Z,998.8
2018-09-14T09:01:11.500Z,998.8
2018-09-14T09:02:13.771Z,998.8
2018-09-14T09:03:16.776Z,998.8
2018-09-14T09:04:19.375Z,998.9
2018-09-14T09:05:22.780Z,998.9
2018-09-14T09:06:25.132Z,998.9
2018-09-14T09:07:28.239Z,998.8
2018-09-14T09:08:30.956Z,998.9
2018-09-14T09:09:34.499Z,998.9
2018-09-14T09:10:37.304Z,998.9
2018-09-14T09:11:39.427Z,998.9
2018-09-14T09:12:42.199Z,998.9
2018-09-14T09:13:45.697Z,998.9
2018-09-14T09:14:48.337Z,998.8
2018-09-14T09:15:51.149Z,998.9
2018-09-14T09:16:54.073Z,998.8
2018-09-14T09:17:56.683Z,998.8
2018-09-14T09:19:02.161Z,998.9
2018-09-14T09:20:03.538Z,998.8
2018-09-14T09:21:05.870Z,998.9
2018-09-14T09:22:07.782Z,998.9
2018-09-14T09:23:10.671Z,998.9
2018-09-14T09:24:16.567Z,998.9
2018-09-14T09:25:17.941Z,998.9
2018-09-14T09:26:19.372Z,998.9
2018-09-14T09:27:22.072Z,998.9
2018-09-14T09:28:25.114Z,998.9
2018-09-14T09:29:29.575Z,998.9
2018-09-14T09:30:30.900Z,998.9
2018-09-14T09:31:33.859Z,998.9
2018-09-14T09:32:36.467Z,998.9
2018-09-14T09:33:39.862Z,998.9
2018-09-14T09:34:43.053Z,998.9
2018-09-14T09:35:47.272Z,998.9
2018-09-14T09:36:48.658Z,998.9
2018-09-14T09:37:51.033Z,998.9
2018-09-14T09:38:53.397Z,998.9
2018-09-14T09:39:57.840Z,998.9
2018-09-14T09:40:59.858Z,998.9
2018-09-14T09:42:02.526Z,998.9
2018-09-14T09:43:05.982Z,998.8
2018-09-14T09:44:07.923Z,998.9
2018-09-14T09:45:12.673Z,998.9
2018-09-14T09:46:14.560Z,998.9
2018-09-14T09:47:17.880Z,998.9
2018-09-14T09:48:20.645Z,998.9
2018-09-14T09:49:23.342Z,998.9
2018-09-14T09:51:30.073Z,998.9
2018-09-14T09:52:31.480Z,998.9
2018-09-14T09:53:34.880Z,998.9
2018-09-14T09:54:40.354Z,998.9
2018-09-14T09:55:41.726Z,998.9
2018-09-14T09:56:43.172Z,998.9
2018-09-14T09:57:46.099Z,999.0
2018-09-14T09:58:49.272Z,998.9
2018-09-14T09:59:51.631Z,998.9
2018-09-14T10:00:54.498Z,998.9
2018-09-14T10:01:57.421Z,998.9
2018-09-14T10:03:01.301Z,998.9
2018-09-14T10:04:03.865Z,998.9
2018-09-14T10:05:06.509Z,998.9
2018-09-14T10:06:10.466Z,998.9
2018-09-14T10:07:11.841Z,998.8
2018-09-14T10:08:15.215Z,998.8
2018-09-14T10:09:18.494Z,998.8
2018-09-14T10:10:22.269Z,998.8
2018-09-14T10:11:23.658Z,998.8
2018-09-14T10:12:27.055Z,998.8
2018-09-14T10:13:29.682Z,998.8
2018-09-14T10:14:33.067Z,998.8
2018-09-14T10:15:36.934Z,998.8
2018-09-14T10:16:39.059Z,998.8
2018-09-14T10:17:41.255Z,998.8
2018-09-14T10:18:44.363Z,998.8
2018-09-14T10:19:47.318Z,998.9
2018-09-14T10:20:51.716Z,998.9
2018-09-14T10:21:53.214Z,998.9
2018-09-14T10:22:55.894Z,998.9
2018-09-14T10:23:57.806Z,998.9
2018-09-14T10:25:01.094Z,998.9
2018-09-14T10:26:04.900Z,998.8
2018-09-14T10:27:07.290Z,998.9
2018-09-14T10:28:10.439Z,998.8
2018-09-14T10:29:12.729Z,998.8
2018-09-14T10:30:15.740Z,998.8
2018-09-14T10:31:19.028Z,998.9
2018-09-14T10:32:23.168Z,998.8
2018-09-14T10:33:24.593Z,998.8
2018-09-14T10:34:27.228Z,998.9
2018-09-14T10:35:31.054Z,998.8
2018-09-14T10:36:32.990Z,998.9
2018-09-14T10:37:36.195Z,998.8
2018-09-14T10:38:38.985Z,998.8
2018-09-14T10:39:41.549Z,998.8
2018-09-14T10:40:47.232Z,998.8
2018-09-14T10:41:47.589Z,998.8
2018-09-14T10:42:50.848Z,998.8
2018-09-14T10:43:53.647Z,998.8
2018-09-14T10:44:56.076Z,998.8
2018-09-14T10:46:01.197Z,998.8
2018-09-14T10:47:04.674Z,998.8
2018-09-14T10:48:06.104Z,998.8
2018-09-14T10:49:07.475Z,998.8
2018-09-14T10:50:10.713Z,998.8
2018-09-14T10:51:14.465Z,998.7
2018-09-14T10:52:16.021Z,998.7
2018-09-14T10:53:19.297Z,998.7
2018-09-14T10:54:22.249Z,998.7
2018-09-14T10:55:24.865Z,998.7
2018-09-14T10:56:28.276Z,998.7
2018-09-14T10:57:31.455Z,998.7
2018-09-14T10:58:34.079Z,998.7
2018-09-14T10:59:36.400Z,998.7
2018-09-14T11:00:39.739Z,998.7
2018-09-14T11:01:43.346Z,998.7
2018-09-14T11:02:44.736Z,998.7
2018-09-14T11:03:47.590Z,998.7
2018-09-14T11:04:50.676Z,998.7
2018-09-14T11:05:55.736Z,998.7
2018-09-14T11:06:57.124Z,998.7
2018-09-14T11:07:59.678Z,998.7
2018-09-14T11:09:02.369Z,998.7
2018-09-14T11:10:05.320Z,998.6
2018-09-14T11:11:08.282Z,998.6
2018-09-14T11:12:12.137Z,998.6
2018-09-14T11:13:15.094Z,998.6
2018-09-14T11:14:16.468Z,998.6
2018-09-14T11:15:20.073Z,998.6
2018-09-14T11:16:22.141Z,998.6
2018-09-14T11:17:25.162Z,998.6
2018-09-14T11:18:28.076Z,998.6
2018-09-14T11:19:31.185Z,998.6
2018-09-14T11:20:33.517Z,998.5
2018-09-14T11:21:37.533Z,998.6
2018-09-14T11:22:40.253Z,998.6
2018-09-14T11:23:43.087Z,998.5
2018-09-14T11:24:45.805Z,998.5
2018-09-14T11:25:48.887Z,998.5
2018-09-14T11:26:53.542Z,998.5
2018-09-14T11:27:56.549Z,998.5
2018-09-14T11:28:57.877Z,998.5
2018-09-14T11:30:00.045Z,998.5
2018-09-14T11:31:03.507Z,998.5
2018-09-14T11:32:06.034Z,998.5
2018-09-14T11:33:08.866Z,998.5
2018-09-14T11:34:11.918Z,998.4
2018-09-14T11:35:13.989Z,998.5
2018-09-14T11:36:16.579Z,998.5
2018-09-14T11:37:21.323Z,998.5
2018-09-14T11:38:24.122Z,998.4
2018-09-14T11:39:25.422Z,998.4
2018-09-14T11:40:28.910Z,998.5
2018-09-14T11:41:31.412Z,998.4
2018-09-14T11:42:37.122Z,998.4
2018-09-14T11:43:39.067Z,998.5
2018-09-14T11:44:40.441Z,998.4
2018-09-14T11:45:43.071Z,998.4
2018-09-14T11:46:48.096Z,998.4
2018-09-14T11:47:49.485Z,998.3
2018-09-14T11:48:51.703Z,998.4
2018-09-14T11:49:54.641Z,998.3
2018-09-14T11:50:57.745Z,998.4
2018-09-14T11:52:00.024Z,998.4
2018-09-14T11:53:04.117Z,998.4
2018-09-14T11:54:05.523Z,998.4
2018-09-14T11:55:08.886Z,998.4
2018-09-14T11:56:12.016Z,998.4
2018-09-14T11:57:17.399Z,998.4
2018-09-14T11:59:20.209Z,998.4
2018-09-14T12:00:22.857Z,998.4
2018-09-14T12:01:26.275Z,998.4
2018-09-14T12:02:29.383Z,998.4
2018-09-14T12:03:31.634Z,998.4
2018-09-14T12:04:34.547Z,998.4
2018-09-14T12:05:37.108Z,998.4
2018-09-14T12:06:39.074Z,998.4
2018-09-14T12:07:43.594Z,998.4
2018-09-14T12:08:46.255Z,998.3
2018-09-14T12:09:46.967Z,998.3
2018-09-14T12:10:51.501Z,998.3
2018-09-14T12:11:54.759Z,998.3
2018-09-14T12:12:58.494Z,998.3
2018-09-14T12:14:00.702Z,998.4
2018-09-14T12:15:02.888Z,998.3
2018-09-14T12:16:06.202Z,998.3
2018-09-14T12:17:08.816Z,998.3
2018-09-14T12:18:13.026Z,998.3
2018-09-14T12:19:14.410Z,998.3
2018-09-14T12:20:16.925Z,998.3
2018-09-14T12:21:20.822Z,998.2
2018-09-14T12:22:23.357Z,998.2
2018-09-14T12:23:27.947Z,998.3
2018-09-14T12:24:29.849Z,998.2
2018-09-14T12:25:31.827Z,998.2
2018-09-14T12:26:33.847Z,998.3
2018-09-14T12:27:39.920Z,998.2
2018-09-14T12:28:41.293Z,998.2
2018-09-14T12:29:44.122Z,998.2
2018-09-14T12:30:46.587Z,998.1
2018-09-14T12:31:48.979Z,998.1
2018-09-14T12:32:51.941Z,998.1
2018-09-14T12:33:56.370Z,998.2
2018-09-14T12:34:59.500Z,998.1
2018-09-14T12:36:00.883Z,998.1
2018-09-14T12:37:03.449Z,998.1
2018-09-14T12:38:06.800Z,998.2
2018-09-14T12:39:09.262Z,998.1
2018-09-14T12:40:11.951Z,998.1
2018-09-14T12:41:16.367Z,998.1
2018-09-14T12:42:18.243Z,998.1
2018-09-14T12:43:23.796Z,998.1
2018-09-14T12:44:24.361Z,998.1
2018-09-14T12:45:26.757Z,998.1
2018-09-14T12:46:29.991Z,998.1
2018-09-14T12:48:36.888Z,998.1
2018-09-14T12:49:38.891Z,998.1
2018-09-14T12:50:41.766Z,998.1
2018-09-14T12:51:44.690Z,998.1
2018-09-14T12:52:48.172Z,998.1
2018-09-14T12:53:52.580Z,998.1
2018-09-14T12:54:54.679Z,998.1
2018-09-14T12:55:56.082Z,998.1
2018-09-14T12:56:58.933Z,998.1
2018-09-14T12:58:03.704Z,998.1
2018-09-14T12:59:05.985Z,998.1
2018-09-14T13:00:07.399Z,998.1
2018-09-14T13:01:10.566Z,998.0
2018-09-14T13:02:13.410Z,998.1
2018-09-14T13:03:15.884Z,998.1
2018-09-14T13:04:20.710Z,998.1
2018-09-14T13:05:22.796Z,998.1
2018-09-14T13:06:24.783Z,998.1
2018-09-14T13:07:27.746Z,998.0
2018-09-14T13:08:31.166Z,998.0
2018-09-14T13:09:33.886Z,998.0
2018-09-14T13:10:37.066Z,998.1
2018-09-14T13:11:39.737Z,998.1
2018-09-14T13:12:41.105Z,998.1
2018-09-14T13:13:42.486Z,998.1
2018-09-14T13:14:44.523Z,998.0
2018-09-14T13:15:45.855Z,998.0
2018-09-14T13:16:47.277Z,998.0
2018-09-14T13:17:48.660Z,998.0
2018-09-14T13:18:50.084Z,998.0
2018-09-14T13:19:51.513Z,998.0
2018-09-14T13:21:54.222Z,998.0
2018-09-14T13:22:55.601Z,998.0